createdAt,value
2017-04-25T00:00:50.186Z,99.99
2017-04-25T00:02:01.217Z,99.99
2017-04-25T00:03:12.243Z,99.99
2017-04-25T00:04:23.272Z,99.99
2017-04-25T00:05:34.305Z,99.99
2017-04-25T00:06:45.530Z,99.99
2017-04-25T00:07:56.558Z,99.99
2017-04-25T00:09:07.582Z,99.99
2017-04-25T00:10:18.609Z,99.99
2017-04-25T00:11:29.844Z,99.99
2017-04-25T00:12:40.874Z,99.99
2017-04-25T00:13:51.897Z,99.99
2017-04-25T00:15:03.176Z,99.99
2017-04-25T00:16:14.202Z,99.99
2017-04-25T00:17:25.227Z,99.99
2017-04-25T00:18:36.255Z,99.99
2017-04-25T00:19:47.286Z,99.99
2017-04-25T00:20:58.518Z,99.99
2017-04-25T00:22:09.528Z,99.99
2017-04-25T00:23:20.553Z,99.99
2017-04-25T00:24:31.842Z,99.99
2017-04-25T00:25:42.873Z,99.99
2017-04-25T00:26:53.897Z,99.99
2017-04-25T00:28:04.924Z,99.99
2017-04-25T00:29:15.971Z,99.99
2017-04-25T00:30:27.014Z,99.99
2017-04-25T00:31:38.254Z,99.99
2017-04-25T00:32:49.275Z,99.99
2017-04-25T00:34:00.294Z,99.99
2017-04-25T00:35:11.379Z,99.99
2017-04-25T00:36:22.406Z,99.99
2017-04-25T00:37:33.434Z,99.99
2017-04-25T00:38:44.664Z,99.99
2017-04-25T00:39:55.696Z,99.99
2017-04-25T00:41:25.936Z,99.99
2017-04-25T00:42:36.960Z,99.99
2017-04-25T00:43:47.988Z,99.99
2017-04-25T00:44:59.016Z,99.99
2017-04-25T00:46:10.100Z,99.99
2017-04-25T00:47:21.135Z,99.99
2017-04-25T00:48:32.172Z,99.99
2017-04-25T00:49:43.195Z,99.99
2017-04-25T00:50:54.201Z,99.99
2017-04-25T00:52:05.278Z,99.99
2017-04-25T00:53:16.523Z,99.99
2017-04-25T00:54:27.560Z,99.99
2017-04-25T00:55:38.573Z,99.99
2017-04-25T00:56:49.597Z,99.99
2017-04-25T00:58:00.675Z,99.99
2017-04-25T00:59:11.705Z,99.99
2017-04-25T01:00:22.729Z,99.99
2017-04-25T01:01:33.780Z,99.99
2017-04-25T01:02:44.811Z,99.99
2017-04-25T01:03:55.850Z,99.99
2017-04-25T01:05:06.884Z,99.99
2017-04-25T01:06:17.908Z,99.99
2017-04-25T01:07:28.931Z,99.99
2017-04-25T01:08:39.956Z,99.99
2017-04-25T01:09:51.178Z,99.99
2017-04-25T01:11:02.216Z,99.99
2017-04-25T01:12:13.243Z,99.99
2017-04-25T01:13:24.273Z,99.99
2017-04-25T01:14:35.297Z,99.99
2017-04-25T01:15:46.327Z,99.99
2017-04-25T01:16:57.356Z,99.99
2017-04-25T01:18:08.377Z,99.99
2017-04-25T01:19:19.809Z,99.99
2017-04-25T01:20:30.838Z,99.99
2017-04-25T01:21:41.871Z,99.99
2017-04-25T01:22:53.097Z,99.99
2017-04-25T01:24:04.121Z,99.99
2017-04-25T01:25:15.351Z,99.99
2017-04-25T01:26:26.428Z,99.99
2017-04-25T01:27:37.454Z,99.99
2017-04-25T01:28:48.484Z,99.99
2017-04-25T01:29:59.512Z,99.99
2017-04-25T01:31:10.738Z,99.99
2017-04-25T01:32:21.993Z,99.99
2017-04-25T01:33:33.020Z,99.99
2017-04-25T01:34:44.049Z,99.99
2017-04-25T01:35:55.078Z,99.99
2017-04-25T01:37:06.357Z,99.99
2017-04-25T01:38:17.373Z,99.99
2017-04-25T01:39:28.406Z,99.99
2017-04-25T01:40:39.439Z,99.99
2017-04-25T01:41:50.454Z,99.99
2017-04-25T01:43:01.493Z,99.99
2017-04-25T01:44:12.708Z,99.99
2017-04-25T01:45:23.739Z,99.99
2017-04-25T01:46:34.814Z,99.99
2017-04-25T01:47:45.838Z,99.99
2017-04-25T01:48:56.857Z,99.99
2017-04-25T01:50:08.090Z,99.99
2017-04-25T01:51:19.132Z,99.99
2017-04-25T01:52:30.362Z,99.99
2017-04-25T01:53:41.800Z,99.99
2017-04-25T01:54:52.842Z,99.99
2017-04-25T01:56:03.863Z,99.99
2017-04-25T01:57:14.948Z,99.99
2017-04-25T01:58:25.967Z,99.99
2017-04-25T01:59:37.000Z,99.99
2017-04-25T02:00:48.030Z,99.99
2017-04-25T02:01:59.063Z,99.99
2017-04-25T02:03:10.102Z,99.99
2017-04-25T02:04:21.326Z,99.99
2017-04-25T02:05:32.355Z,99.99
2017-04-25T02:06:43.774Z,99.99
2017-04-25T02:07:54.853Z,99.99
2017-04-25T02:09:05.867Z,99.99
2017-04-25T02:10:16.891Z,99.99
2017-04-25T02:11:28.314Z,99.99
2017-04-25T02:12:39.337Z,99.99
2017-04-25T02:13:50.357Z,99.99
2017-04-25T02:15:01.415Z,99.99
2017-04-25T02:16:12.439Z,99.99
2017-04-25T02:17:23.469Z,99.99
2017-04-25T02:18:34.752Z,99.99
2017-04-25T02:19:45.782Z,99.99
2017-04-25T02:20:57.012Z,99.99
2017-04-25T02:22:08.028Z,99.99
2017-04-25T02:23:19.054Z,99.99
2017-04-25T02:24:30.073Z,99.99
2017-04-25T02:25:41.102Z,99.99
2017-04-25T02:26:52.130Z,99.99
2017-04-25T02:28:03.149Z,99.99
2017-04-25T02:29:14.230Z,99.99
2017-04-25T02:30:25.456Z,99.99
2017-04-25T02:31:36.483Z,99.99
2017-04-25T02:32:47.514Z,99.68
2017-04-25T02:33:58.554Z,99.99
2017-04-25T02:35:09.588Z,99.99
2017-04-25T02:36:20.617Z,99.97
2017-04-25T02:37:31.644Z,99.99
2017-04-25T02:38:42.866Z,99.99
2017-04-25T02:39:54.136Z,99.77
2017-04-25T02:41:05.163Z,99.99
2017-04-25T02:42:16.195Z,99.87
2017-04-25T02:43:27.233Z,99.99
2017-04-25T02:44:38.466Z,99.99
2017-04-25T02:45:49.502Z,99.68
2017-04-25T02:47:00.521Z,99.99
2017-04-25T02:48:11.543Z,99.99
2017-04-25T02:49:22.577Z,99.99
2017-04-25T02:50:33.598Z,99.99
2017-04-25T02:51:44.626Z,99.99
2017-04-25T02:52:55.648Z,99.99
2017-04-25T02:54:06.676Z,99.97
2017-04-25T02:55:17.960Z,99.99
2017-04-25T02:56:28.981Z,99.99
2017-04-25T02:57:40.009Z,99.99
2017-04-25T02:58:51.031Z,99.99
2017-04-25T03:00:02.055Z,99.99
2017-04-25T03:01:13.083Z,99.99
2017-04-25T03:02:24.097Z,99.99
2017-04-25T03:03:35.123Z,99.99
2017-04-25T03:04:47.361Z,99.99
2017-04-25T03:05:59.448Z,99.68
2017-04-25T03:07:10.860Z,99.99
2017-04-25T03:08:21.885Z,99.97
2017-04-25T03:09:33.513Z,99.99
2017-04-25T03:10:44.743Z,99.99
2017-04-25T03:11:56.012Z,99.99
2017-04-25T03:13:07.035Z,99.99
2017-04-25T03:14:18.049Z,99.99
2017-04-25T03:15:29.264Z,99.99
2017-04-25T03:16:40.470Z,99.99
2017-04-25T03:17:51.737Z,99.99
2017-04-25T03:19:02.734Z,99.99
2017-04-25T03:20:13.736Z,99.99
2017-04-25T03:21:24.745Z,99.99
2017-04-25T03:22:36.146Z,99.99
2017-04-25T03:23:47.212Z,99.99
2017-04-25T03:24:58.227Z,99.99
2017-04-25T03:26:09.249Z,99.99
2017-04-25T03:27:20.487Z,98.64
2017-04-25T03:28:31.693Z,97.92
2017-04-25T03:29:42.912Z,99.99
2017-04-25T03:30:54.545Z,99.99
2017-04-25T03:32:05.756Z,99.99
2017-04-25T03:33:17.612Z,97.92
2017-04-25T03:34:29.231Z,99.99
2017-04-25T03:35:40.246Z,98.11
2017-04-25T03:36:51.257Z,99.99
2017-04-25T03:38:02.261Z,99.99
2017-04-25T03:39:13.680Z,99.99
2017-04-25T03:40:24.887Z,99.99
2017-04-25T03:41:36.095Z,99.99
2017-04-25T03:42:47.294Z,99.99
2017-04-25T03:43:58.351Z,99.99
2017-04-25T03:45:09.569Z,99.54
2017-04-25T03:46:20.988Z,97.55
2017-04-25T03:47:32.006Z,99.99
2017-04-25T03:48:43.025Z,99.91
2017-04-25T03:49:54.246Z,99.99
2017-04-25T03:51:05.488Z,99.99
2017-04-25T03:52:16.699Z,99.99
2017-04-25T03:53:27.702Z,97.74
2017-04-25T03:54:38.959Z,95.55
2017-04-25T03:55:50.574Z,99.99
2017-04-25T03:57:03.000Z,99.99
2017-04-25T03:58:14.213Z,98.87
2017-04-25T03:59:25.425Z,99.99
2017-04-25T04:00:37.244Z,99.82
2017-04-25T04:01:48.457Z,95.84
2017-04-25T04:02:59.468Z,99.99
2017-04-25T04:04:10.884Z,96.03
2017-04-25T04:05:22.302Z,97.64
2017-04-25T04:06:33.907Z,99.99
2017-04-25T04:07:45.320Z,97.07
2017-04-25T04:08:56.528Z,98.49
2017-04-25T04:10:07.530Z,98.68
2017-04-25T04:11:18.796Z,99.73
2017-04-25T04:12:30.033Z,98.59
2017-04-25T04:13:41.247Z,99.73
2017-04-25T04:14:52.292Z,99.99
2017-04-25T04:16:03.293Z,98.87
2017-04-25T04:17:14.710Z,99.99
2017-04-25T04:18:26.321Z,99.99
2017-04-25T04:19:37.731Z,97.45
2017-04-25T04:20:48.787Z,99.99
2017-04-25T04:21:59.790Z,98.21
2017-04-25T04:23:11.401Z,99.99
2017-04-25T04:24:22.814Z,97.97
2017-04-25T04:25:34.033Z,99.99
2017-04-25T04:26:45.037Z,99.99
2017-04-25T04:27:56.453Z,98.21
2017-04-25T04:29:07.458Z,99.99
2017-04-25T04:30:18.668Z,99.99
2017-04-25T04:31:29.712Z,96.78
2017-04-25T04:32:40.924Z,99.99
2017-04-25T04:33:51.937Z,99.99
2017-04-25T04:35:03.145Z,99.97
2017-04-25T04:36:14.556Z,99.82
2017-04-25T04:37:25.756Z,98.87
2017-04-25T04:38:36.981Z,99.99
2017-04-25T04:39:48.393Z,99.99
2017-04-25T04:41:00.007Z,99.99
2017-04-25T04:42:12.065Z,99.99
2017-04-25T04:43:23.266Z,99.99
2017-04-25T04:44:34.489Z,99.99
2017-04-25T04:45:45.696Z,98.45
2017-04-25T04:46:57.115Z,99.99
2017-04-25T04:48:08.165Z,99.99
2017-04-25T04:49:19.380Z,99.97
2017-04-25T04:50:30.589Z,99.99
2017-04-25T04:51:41.583Z,99.99
2017-04-25T04:52:52.997Z,99.99
2017-04-25T04:54:04.006Z,99.99
2017-04-25T04:55:16.223Z,99.99
2017-04-25T04:56:27.429Z,99.99
2017-04-25T04:57:38.649Z,99.99
2017-04-25T04:58:49.865Z,99.99
2017-04-25T05:00:00.915Z,99.99
2017-04-25T05:01:11.921Z,99.99
2017-04-25T05:02:23.542Z,99.99
2017-04-25T05:03:34.766Z,99.99
2017-04-25T05:04:46.224Z,99.99
2017-04-25T05:05:57.220Z,99.99
2017-04-25T05:07:08.433Z,99.99
2017-04-25T05:08:19.443Z,99.99
2017-04-25T05:09:30.927Z,99.99
2017-04-25T05:10:42.537Z,99.99
2017-04-25T05:11:53.949Z,99.99
2017-04-25T05:13:04.957Z,99.99
2017-04-25T05:14:16.159Z,99.99
2017-04-25T05:15:27.573Z,99.99
2017-04-25T05:16:38.776Z,99.99
2017-04-25T05:17:49.973Z,99.99
2017-04-25T05:19:01.194Z,99.99
2017-04-25T05:20:12.451Z,99.99
2017-04-25T05:21:23.463Z,99.99
2017-04-25T05:22:34.467Z,99.99
2017-04-25T05:23:45.862Z,99.99
2017-04-25T05:24:57.077Z,99.99
2017-04-25T05:26:08.096Z,99.99
2017-04-25T05:27:19.326Z,99.99
2017-04-25T05:28:30.366Z,99.99
2017-04-25T05:29:41.397Z,99.99
2017-04-25T05:30:52.471Z,99.99
2017-04-25T05:32:03.507Z,99.99
2017-04-25T05:33:14.527Z,99.99
2017-04-25T05:34:25.568Z,99.99
2017-04-25T05:35:36.605Z,99.99
2017-04-25T05:36:47.694Z,99.99
2017-04-25T05:37:58.729Z,99.99
2017-04-25T05:39:09.742Z,99.99
2017-04-25T05:40:20.775Z,99.99
2017-04-25T05:41:31.803Z,99.99
2017-04-25T05:42:43.035Z,99.99
2017-04-25T05:43:54.286Z,99.99
2017-04-25T05:45:05.320Z,99.99
2017-04-25T05:46:16.380Z,99.99
2017-04-25T05:47:27.407Z,99.99
2017-04-25T05:48:38.709Z,99.99
2017-04-25T05:49:49.758Z,99.99
2017-04-25T05:51:01.056Z,99.99
2017-04-25T05:52:12.084Z,99.99
2017-04-25T05:53:23.127Z,99.99
2017-04-25T05:54:34.354Z,99.99
2017-04-25T05:55:45.388Z,99.99
2017-04-25T05:56:56.415Z,99.99
2017-04-25T05:58:07.494Z,99.99
2017-04-25T05:59:18.537Z,99.99
2017-04-25T06:00:29.578Z,99.99
2017-04-25T06:01:40.605Z,99.99
2017-04-25T06:02:51.638Z,99.99
2017-04-25T06:04:02.864Z,99.99
2017-04-25T06:05:13.903Z,99.99
2017-04-25T06:06:24.937Z,99.99
2017-04-25T06:07:35.959Z,99.99
2017-04-25T06:08:47.069Z,99.99
2017-04-25T06:09:58.305Z,99.99
2017-04-25T06:11:09.340Z,99.99
2017-04-25T06:12:20.367Z,99.99
2017-04-25T06:13:31.407Z,99.99
2017-04-25T06:14:42.447Z,99.99
2017-04-25T06:15:53.475Z,99.99
2017-04-25T06:17:04.910Z,99.99
2017-04-25T06:18:15.942Z,99.99
2017-04-25T06:19:27.025Z,99.99
2017-04-25T06:20:38.057Z,99.99
2017-04-25T06:21:49.094Z,99.99
2017-04-25T06:23:00.126Z,99.99
2017-04-25T06:24:11.148Z,99.99
2017-04-25T06:25:22.385Z,99.99
2017-04-25T06:26:33.417Z,99.99
2017-04-25T06:27:44.454Z,99.99
2017-04-25T06:28:55.492Z,99.99
2017-04-25T06:30:06.528Z,99.99
2017-04-25T06:31:17.620Z,99.99
2017-04-25T06:32:28.681Z,99.99
2017-04-25T06:33:39.723Z,99.99
2017-04-25T06:34:50.771Z,99.99
2017-04-25T06:36:02.003Z,99.99
2017-04-25T06:37:13.062Z,99.99
2017-04-25T06:38:24.099Z,99.99
2017-04-25T06:39:35.132Z,99.99
2017-04-25T06:40:46.223Z,99.99
2017-04-25T06:41:57.254Z,99.99
2017-04-25T06:43:08.478Z,99.99
2017-04-25T06:44:19.727Z,99.99
2017-04-25T06:45:30.961Z,99.99
2017-04-25T06:46:42.001Z,99.99
2017-04-25T06:47:53.827Z,99.99
2017-04-25T06:49:05.074Z,99.99
2017-04-25T06:50:16.105Z,99.99
2017-04-25T06:51:27.387Z,99.99
2017-04-25T06:52:38.627Z,99.99
2017-04-25T06:53:49.865Z,99.99
2017-04-25T06:55:00.898Z,99.99
2017-04-25T06:56:11.930Z,99.99
2017-04-25T06:57:22.953Z,99.99
2017-04-25T06:58:33.989Z,99.99
2017-04-25T06:59:45.024Z,99.99
2017-04-25T07:00:56.062Z,99.99
2017-04-25T07:02:07.162Z,99.79
2017-04-25T07:03:18.210Z,99.41
2017-04-25T07:04:29.245Z,99.99
2017-04-25T07:05:40.495Z,99.99
2017-04-25T07:06:51.527Z,99.98
2017-04-25T07:08:02.561Z,96.51
2017-04-25T07:09:13.604Z,92.7
2017-04-25T07:10:24.646Z,91.94
2017-04-25T07:11:35.683Z,93.65
2017-04-25T07:12:46.915Z,90.08
2017-04-25T07:13:58.403Z,90.46
2017-04-25T07:15:09.437Z,90.84
2017-04-25T07:16:20.488Z,90.08
2017-04-25T07:17:31.528Z,87.65
2017-04-25T07:18:42.559Z,84.83
2017-04-25T07:19:53.594Z,83.69
2017-04-25T07:21:04.838Z,82.92
2017-04-25T07:22:15.883Z,82.35
2017-04-25T07:23:27.168Z,80.73
2017-04-25T07:24:38.211Z,81.59
2017-04-25T07:25:49.249Z,84.5
2017-04-25T07:27:00.282Z,86.36
2017-04-25T07:28:11.318Z,87.03
2017-04-25T07:29:22.551Z,89.37
2017-04-25T07:30:33.595Z,85.66
2017-04-25T07:31:44.643Z,83.85
2017-04-25T07:32:55.693Z,83.75
2017-04-25T07:34:06.775Z,84.95
2017-04-25T07:35:17.799Z,86.94
2017-04-25T07:36:29.237Z,88.18
2017-04-25T07:37:40.261Z,88.85
2017-04-25T07:38:51.525Z,89.14
2017-04-25T07:40:02.552Z,87.27
2017-04-25T07:41:13.578Z,86.51
2017-04-25T07:42:24.608Z,87.65
2017-04-25T07:43:35.641Z,86.13
2017-04-25T07:44:46.668Z,84.28
2017-04-25T07:45:57.708Z,82.76
2017-04-25T07:47:08.751Z,84.47
2017-04-25T07:48:19.785Z,84.47
2017-04-25T07:49:30.857Z,80.76
2017-04-25T07:50:41.904Z,79.38
2017-04-25T07:51:52.931Z,80.71
2017-04-25T07:53:03.978Z,77.42
2017-04-25T07:54:15.223Z,76.94
2017-04-25T07:55:26.252Z,77.61
2017-04-25T07:56:37.334Z,75.32
2017-04-25T07:57:48.372Z,78.04
2017-04-25T07:58:59.415Z,79.43
2017-04-25T08:00:10.658Z,79.47
2017-04-25T08:01:21.696Z,79.09
2017-04-25T08:02:32.739Z,79.28
2017-04-25T08:03:43.768Z,79.05
2017-04-25T08:04:54.802Z,78.52
2017-04-25T08:06:05.884Z,78.04
2017-04-25T08:07:16.921Z,75.89
2017-04-25T08:08:27.970Z,75.16
2017-04-25T08:09:39.016Z,75.07
2017-04-25T08:10:50.050Z,73.3
2017-04-25T08:12:01.298Z,72.16
2017-04-25T08:13:12.335Z,72.92
2017-04-25T08:14:23.381Z,72.72
2017-04-25T08:15:34.419Z,72.25
2017-04-25T08:16:45.519Z,70.38
2017-04-25T08:17:56.548Z,70.47
2017-04-25T08:19:07.591Z,70.19
2017-04-25T08:20:18.841Z,70.86
2017-04-25T08:21:29.884Z,72.72
2017-04-25T08:22:41.129Z,72.34
2017-04-25T08:23:52.151Z,71.11
2017-04-25T08:25:03.185Z,73.74
2017-04-25T08:26:14.221Z,73.65
2017-04-25T08:27:25.467Z,74.5
2017-04-25T08:28:36.497Z,74.02
2017-04-25T08:29:47.544Z,73.7
2017-04-25T08:30:58.597Z,75.51
2017-04-25T08:32:09.626Z,75.89
2017-04-25T08:33:20.703Z,75.7
2017-04-25T08:34:31.732Z,75.38
2017-04-25T08:35:42.768Z,75.95
2017-04-25T08:36:53.797Z,77.28
2017-04-25T08:38:04.829Z,78.04
2017-04-25T08:39:15.917Z,78.33
2017-04-25T08:40:26.945Z,78.61
2017-04-25T08:41:37.982Z,78
2017-04-25T08:42:49.012Z,78
2017-04-25T08:44:00.093Z,78.48
2017-04-25T08:45:11.123Z,78.77
2017-04-25T08:46:22.164Z,77
2017-04-25T08:47:33.198Z,75.79
2017-04-25T08:48:44.228Z,76.08
2017-04-25T08:49:55.311Z,75.42
2017-04-25T08:51:06.348Z,76.56
2017-04-25T08:52:17.592Z,76.14
2017-04-25T08:53:28.833Z,77.85
2017-04-25T08:54:40.104Z,77.8
2017-04-25T08:55:51.183Z,76.46
2017-04-25T08:57:02.214Z,74.21
2017-04-25T08:58:13.244Z,75.04
2017-04-25T08:59:24.284Z,75.13
2017-04-25T09:00:35.535Z,76.23
2017-04-25T09:01:46.820Z,76.81
2017-04-25T09:02:58.053Z,76.42
2017-04-25T09:04:09.087Z,78.27
2017-04-25T09:05:20.121Z,76.65
2017-04-25T09:06:31.357Z,76.27
2017-04-25T09:07:42.444Z,74.88
2017-04-25T09:08:53.487Z,74.02
2017-04-25T09:10:04.530Z,72.88
2017-04-25T09:11:15.771Z,74.4
2017-04-25T09:12:26.807Z,73.55
2017-04-25T09:13:38.100Z,73.89
2017-04-25T09:14:49.138Z,74.37
2017-04-25T09:16:00.173Z,75.6
2017-04-25T09:17:11.204Z,76.18
2017-04-25T09:18:22.435Z,75.42
2017-04-25T09:19:33.527Z,75.79
2017-04-25T09:20:44.582Z,75.7
2017-04-25T09:21:55.647Z,75.89
2017-04-25T09:23:06.684Z,76.46
2017-04-25T09:24:17.715Z,75.51
2017-04-25T09:25:28.799Z,74.12
2017-04-25T09:26:40.024Z,73.39
2017-04-25T09:27:51.066Z,73.49
2017-04-25T09:29:02.103Z,72.16
2017-04-25T09:30:13.148Z,72.82
2017-04-25T09:31:24.235Z,72
2017-04-25T09:32:35.473Z,72.28
2017-04-25T09:33:46.536Z,70.76
2017-04-25T09:34:57.779Z,69.81
2017-04-25T09:36:08.823Z,70.03
2017-04-25T09:37:19.922Z,69.59
2017-04-25T09:38:31.162Z,68.16
2017-04-25T09:39:42.208Z,67.36
2017-04-25T09:40:53.247Z,69.9
2017-04-25T09:42:04.313Z,70.34
2017-04-25T09:43:15.395Z,70.44
2017-04-25T09:44:26.636Z,69.52
2017-04-25T09:45:37.881Z,71.01
2017-04-25T09:46:48.918Z,70.44
2017-04-25T09:48:00.169Z,69.62
2017-04-25T09:49:11.250Z,71.23
2017-04-25T09:50:22.307Z,70.53
2017-04-25T09:51:33.765Z,70.44
2017-04-25T09:52:44.797Z,71.58
2017-04-25T09:53:55.844Z,70.72
2017-04-25T09:55:06.934Z,70.72
2017-04-25T09:56:17.978Z,70.47
2017-04-25T09:57:29.200Z,70.98
2017-04-25T09:58:40.234Z,69.74
2017-04-25T09:59:51.485Z,68.88
2017-04-25T10:01:02.783Z,68.51
2017-04-25T10:02:13.827Z,67.65
2017-04-25T10:03:24.852Z,67.61
2017-04-25T10:04:36.098Z,69.52
2017-04-25T10:05:47.132Z,68.66
2017-04-25T10:06:58.220Z,68.7
2017-04-25T10:08:09.251Z,68.41
2017-04-25T10:09:20.280Z,68.7
2017-04-25T10:10:31.523Z,70.22
2017-04-25T10:11:42.568Z,69.93
2017-04-25T10:12:53.651Z,68.76
2017-04-25T10:14:04.693Z,70.19
2017-04-25T10:15:15.729Z,71.58
2017-04-25T10:16:26.765Z,72.16
2017-04-25T10:17:37.805Z,71.3
2017-04-25T10:18:48.899Z,72.21
2017-04-25T10:20:00.140Z,72.5
2017-04-25T10:21:11.180Z,72.69
2017-04-25T10:22:22.432Z,73.26
2017-04-25T10:23:33.466Z,73.65
2017-04-25T10:24:44.767Z,73.36
2017-04-25T10:25:55.808Z,73.55
2017-04-25T10:27:07.036Z,72.21
2017-04-25T10:28:18.083Z,72.6
2017-04-25T10:29:29.321Z,74.4
2017-04-25T10:30:40.371Z,74.94
2017-04-25T10:31:51.634Z,75.51
2017-04-25T10:33:02.671Z,76.56
2017-04-25T10:34:13.707Z,77.8
2017-04-25T10:35:24.786Z,78.99
2017-04-25T10:36:35.824Z,82.04
2017-04-25T10:37:46.855Z,81.09
2017-04-25T10:38:57.888Z,81.47
2017-04-25T10:40:08.933Z,81.66
2017-04-25T10:41:20.015Z,82.14
2017-04-25T10:42:31.042Z,81.37
2017-04-25T10:43:42.067Z,80.46
2017-04-25T10:44:53.105Z,79.41
2017-04-25T10:46:04.130Z,78.75
2017-04-25T10:47:15.222Z,79.13
2017-04-25T10:48:26.243Z,79.41
2017-04-25T10:49:37.290Z,79.89
2017-04-25T10:50:48.537Z,79.22
2017-04-25T10:51:59.577Z,78.5
2017-04-25T10:53:10.671Z,77.83
2017-04-25T10:54:21.922Z,75.11
2017-04-25T10:55:32.953Z,73.52
2017-04-25T10:56:44.197Z,74.01
2017-04-25T10:57:55.220Z,72.89
2017-04-25T10:59:06.322Z,72.23
2017-04-25T11:00:17.360Z,70.92
2017-04-25T11:01:28.405Z,70.45
2017-04-25T11:02:39.460Z,69.78
2017-04-25T11:03:50.495Z,69.37
2017-04-25T11:05:01.577Z,69.65
2017-04-25T11:06:12.618Z,70.45
2017-04-25T11:07:23.652Z,71.31
2017-04-25T11:08:34.888Z,71.27
2017-04-25T11:09:46.123Z,70.03
2017-04-25T11:10:57.204Z,69.93
2017-04-25T11:12:08.447Z,68.35
2017-04-25T11:13:19.495Z,68.16
2017-04-25T11:14:30.549Z,68
2017-04-25T11:15:41.589Z,67.77
2017-04-25T11:16:52.693Z,67.4
2017-04-25T11:18:03.733Z,68.54
2017-04-25T11:19:14.780Z,69.21
2017-04-25T11:20:26.221Z,68.44
2017-04-25T11:21:37.461Z,71.75
2017-04-25T11:22:48.561Z,73.37
2017-04-25T11:23:59.795Z,74.19
2017-04-25T11:25:10.837Z,76.35
2017-04-25T11:26:21.874Z,77.64
2017-04-25T11:27:33.108Z,78.75
2017-04-25T11:28:44.190Z,80.27
2017-04-25T11:29:55.222Z,82.37
2017-04-25T11:31:06.465Z,84.7
2017-04-25T11:32:17.504Z,85.75
2017-04-25T11:33:28.534Z,88.04
2017-04-25T11:34:39.615Z,90.03
2017-04-25T11:35:50.648Z,91.42
2017-04-25T11:37:01.886Z,92.65
2017-04-25T11:38:12.919Z,93.7
2017-04-25T11:39:24.163Z,96.08
2017-04-25T11:40:35.249Z,97.5
2017-04-25T11:41:46.276Z,97.79
2017-04-25T11:42:57.315Z,98.55
2017-04-25T11:44:08.352Z,99.41
2017-04-25T11:45:19.399Z,99.98
2017-04-25T11:46:30.482Z,99.5
2017-04-25T11:47:41.722Z,99.99
2017-04-25T11:48:52.762Z,99.99
2017-04-25T11:50:03.995Z,98.27
2017-04-25T11:51:15.025Z,98.99
2017-04-25T11:52:26.125Z,98.51
2017-04-25T11:53:37.148Z,96.27
2017-04-25T11:54:48.188Z,94.08
2017-04-25T11:55:59.222Z,90.5
2017-04-25T11:57:10.248Z,88.98
2017-04-25T11:58:21.338Z,86.06
2017-04-25T11:59:32.372Z,85.68
2017-04-25T12:00:43.410Z,82.63
2017-04-25T12:01:54.640Z,79.43
2017-04-25T12:03:05.684Z,79.19
2017-04-25T12:04:16.956Z,79.86
2017-04-25T12:05:27.994Z,78.18
2017-04-25T12:06:39.029Z,77.8
2017-04-25T12:07:50.084Z,76.75
2017-04-25T12:09:01.119Z,76.94
2017-04-25T12:10:12.203Z,76.56
2017-04-25T12:11:23.244Z,76.84
2017-04-25T12:12:34.498Z,74.93
2017-04-25T12:13:45.548Z,75.32
2017-04-25T12:14:56.587Z,76.27
2017-04-25T12:16:07.868Z,76.94
2017-04-25T12:17:19.322Z,75.66
2017-04-25T12:18:30.368Z,76.23
2017-04-25T12:19:41.605Z,76.37
2017-04-25T12:20:52.647Z,75.66
2017-04-25T12:22:04.147Z,76.9
2017-04-25T12:23:15.186Z,76.62
2017-04-25T12:24:26.216Z,76.71
2017-04-25T12:25:37.255Z,78.18
2017-04-25T12:26:48.296Z,76.08
2017-04-25T12:27:59.386Z,73.54
2017-04-25T12:29:10.427Z,70.67
2017-04-25T12:30:21.678Z,71.92
2017-04-25T12:31:32.924Z,72.39
2017-04-25T12:32:44.169Z,72.39
2017-04-25T12:33:55.870Z,71.38
2017-04-25T12:35:06.910Z,70.81
2017-04-25T12:36:17.946Z,69.37
2017-04-25T12:37:28.991Z,68.13
2017-04-25T12:38:40.044Z,69.15
2017-04-25T12:39:51.150Z,69.91
2017-04-25T12:41:02.177Z,70.92
2017-04-25T12:42:13.224Z,71.92
2017-04-25T12:43:24.465Z,72.64
2017-04-25T12:44:35.711Z,72.26
2017-04-25T12:45:46.739Z,71.21
2017-04-25T12:46:57.771Z,70.36
2017-04-25T12:48:08.810Z,70.54
2017-04-25T12:49:19.851Z,72.89
2017-04-25T12:50:30.941Z,75.85
2017-04-25T12:51:41.997Z,76.62
2017-04-25T12:52:53.032Z,78.14
2017-04-25T12:54:04.061Z,80.01
2017-04-25T12:55:15.130Z,82.78
2017-04-25T12:56:26.223Z,84.01
2017-04-25T12:57:37.261Z,83.83
2017-04-25T12:58:48.303Z,79.35
2017-04-25T12:59:59.340Z,78.49
2017-04-25T13:01:10.374Z,77.15
2017-04-25T13:02:21.652Z,77.28
2017-04-25T13:03:32.696Z,70.98
2017-04-25T13:04:43.739Z,74.61
2017-04-25T13:05:54.775Z,74.71
2017-04-25T13:07:06.024Z,76.94
2017-04-25T13:08:17.110Z,75.22
2017-04-25T13:09:28.169Z,73.03
2017-04-25T13:10:39.199Z,72.45
2017-04-25T13:11:50.445Z,73.22
2017-04-25T13:13:01.489Z,71.5
2017-04-25T13:14:12.585Z,71.5
2017-04-25T13:15:23.627Z,71.08
2017-04-25T13:16:34.670Z,73.81
2017-04-25T13:17:45.705Z,73.33
2017-04-25T13:18:56.740Z,73.91
2017-04-25T13:20:07.826Z,74.54
2017-04-25T13:21:18.862Z,74.16
2017-04-25T13:22:29.889Z,74.73
2017-04-25T13:23:40.931Z,75.3
2017-04-25T13:24:51.971Z,71.96
2017-04-25T13:26:03.050Z,69.2
2017-04-25T13:27:14.092Z,70.53
2017-04-25T13:28:25.319Z,70.63
2017-04-25T13:29:36.591Z,71.45
2017-04-25T13:30:47.624Z,71.26
2017-04-25T13:31:58.704Z,71.64
2017-04-25T13:33:09.929Z,72.16
2017-04-25T13:34:20.955Z,72.63
2017-04-25T13:35:32.001Z,70.06
2017-04-25T13:36:43.225Z,69.81
2017-04-25T13:37:54.251Z,70.19
2017-04-25T13:39:05.288Z,69.71
2017-04-25T13:40:16.527Z,70.28
2017-04-25T13:41:27.556Z,71.72
2017-04-25T13:42:38.650Z,70.95
2017-04-25T13:43:49.686Z,71.52
2017-04-25T13:45:00.735Z,71.81
2017-04-25T13:46:11.775Z,73.52
2017-04-25T13:47:22.807Z,73.52
2017-04-25T13:48:33.899Z,73.43
2017-04-25T13:49:44.937Z,73.43
2017-04-25T13:50:56.177Z,74.48
2017-04-25T13:52:07.409Z,74.19
2017-04-25T13:53:18.441Z,73.72
2017-04-25T13:54:29.523Z,73.33
2017-04-25T13:55:40.576Z,71.72
2017-04-25T13:56:52.235Z,70.19
2017-04-25T13:58:03.282Z,70.67
2017-04-25T13:59:14.322Z,71.62
2017-04-25T14:00:25.368Z,70.67
2017-04-25T14:01:36.392Z,71.14
2017-04-25T14:02:47.418Z,70.95
2017-04-25T14:03:58.652Z,71.43
2017-04-25T14:05:09.737Z,70.34
2017-04-25T14:06:20.768Z,70.06
2017-04-25T14:07:31.991Z,69.29
2017-04-25T14:08:43.033Z,70.67
2017-04-25T14:09:54.265Z,70.67
2017-04-25T14:11:05.360Z,71.52
2017-04-25T14:12:16.390Z,70.51
2017-04-25T14:13:27.618Z,70.22
2017-04-25T14:14:38.940Z,68.79
2017-04-25T14:15:49.971Z,68.79
2017-04-25T14:17:01.065Z,67.55
2017-04-25T14:18:12.291Z,69.17
2017-04-25T14:19:23.533Z,70.13
2017-04-25T14:20:34.567Z,70.03
2017-04-25T14:21:45.596Z,69.84
2017-04-25T14:22:56.708Z,68.79
2017-04-25T14:24:07.826Z,69.11
2017-04-25T14:25:18.870Z,67.74
2017-04-25T14:26:29.908Z,69.08
2017-04-25T14:27:40.940Z,70.22
2017-04-25T14:28:52.035Z,69.17
2017-04-25T14:30:03.270Z,70.22
2017-04-25T14:31:14.312Z,69.37
2017-04-25T14:32:25.339Z,69.65
2017-04-25T14:33:36.565Z,68.03
2017-04-25T14:34:47.642Z,68.22
2017-04-25T14:35:58.667Z,68.88
2017-04-25T14:37:09.710Z,70.03
2017-04-25T14:38:20.948Z,70.19
2017-04-25T14:39:31.988Z,69.52
2017-04-25T14:40:43.090Z,71.62
2017-04-25T14:41:54.321Z,71.23
2017-04-25T14:43:05.360Z,70.57
2017-04-25T14:44:16.416Z,69.81
2017-04-25T14:45:27.455Z,70.38
2017-04-25T14:46:38.740Z,69.71
2017-04-25T14:47:49.771Z,68.85
2017-04-25T14:49:00.798Z,69.52
2017-04-25T14:50:11.823Z,67.83
2017-04-25T14:51:23.066Z,68.7
2017-04-25T14:52:34.354Z,67.83
2017-04-25T14:53:45.393Z,67.74
2017-04-25T14:54:56.427Z,67.27
2017-04-25T14:56:07.461Z,67.27
2017-04-25T14:57:18.494Z,67.46
2017-04-25T14:58:29.782Z,67.55
2017-04-25T14:59:40.829Z,66.02
2017-04-25T15:00:51.868Z,66.22
2017-04-25T15:02:02.903Z,64.88
2017-04-25T15:03:14.139Z,65.7
2017-04-25T15:04:25.235Z,64.85
2017-04-25T15:05:36.466Z,67.23
2017-04-25T15:06:47.496Z,67.61
2017-04-25T15:07:58.539Z,67.71
2017-04-25T15:09:09.575Z,68.28
2017-04-25T15:10:20.668Z,68.32
2017-04-25T15:11:31.698Z,67.74
2017-04-25T15:12:42.755Z,64.97
2017-04-25T15:13:53.777Z,65.45
2017-04-25T15:15:04.826Z,65.45
2017-04-25T15:16:15.910Z,63.73
2017-04-25T15:17:26.940Z,62.97
2017-04-25T15:18:38.196Z,65.52